createdAt,value
2019-02-17T00:00:10.109Z,0.24
2019-02-17T00:02:44.927Z,0.25
2019-02-17T00:05:13.958Z,0.16
2019-02-17T00:07:43.041Z,0.19
2019-02-17T00:10:12.113Z,0.05
2019-02-17T00:12:41.154Z,-0.02
2019-02-17T00:15:11.403Z,-0.23
2019-02-17T00:17:40.486Z,-0.33
2019-02-17T00:20:09.531Z,-0.49
2019-02-17T00:22:38.600Z,-0.52
2019-02-17T00:25:07.729Z,-0.61
2019-02-17T00:27:37.223Z,-0.59
2019-02-17T00:30:08.928Z,-0.57
2019-02-17T00:32:38.015Z,-0.52
2019-02-17T00:35:09.684Z,-0.43
2019-02-17T00:37:38.776Z,-0.58
2019-02-17T00:40:07.829Z,-0.69
2019-02-17T00:42:36.939Z,-0.90
2019-02-17T00:45:06.986Z,-0.96
2019-02-17T00:47:36.783Z,-1.05
2019-02-17T00:50:06.827Z,-0.87
2019-02-17T00:52:35.869Z,-1.07
2019-02-17T00:55:05.816Z,-1.32
2019-02-17T00:57:34.882Z,-1.40
2019-02-17T01:02:40.216Z,-1.28
2019-02-17T01:05:10.227Z,-1.26
2019-02-17T01:10:21.119Z,-1.70
2019-02-17T01:12:50.304Z,-1.79
2019-02-17T01:15:19.333Z,-1.87
2019-02-17T01:17:48.415Z,-1.81
2019-02-17T01:20:18.233Z,-1.89
2019-02-17T01:22:49.304Z,-1.92
2019-02-17T01:25:19.271Z,-1.94
2019-02-17T01:27:48.348Z,-2.05
2019-02-17T01:30:17.385Z,-2.04
2019-02-17T01:32:47.387Z,-1.88
2019-02-17T01:35:17.412Z,-1.78
2019-02-17T01:40:32.769Z,-1.59
2019-02-17T01:43:02.741Z,-1.57
2019-02-17T01:45:31.791Z,-1.77
2019-02-17T01:50:41.686Z,-1.68
2019-02-17T01:53:11.727Z,-1.47
2019-02-17T01:55:40.795Z,-1.81
2019-02-17T02:00:48.138Z,-1.75
2019-02-17T02:03:18.151Z,-1.59
2019-02-17T02:05:47.743Z,-1.59
2019-02-17T02:08:17.828Z,-1.67
2019-02-17T02:10:46.883Z,-2.11
2019-02-17T02:16:01.560Z,-2.22
2019-02-17T02:18:32.256Z,-1.81
2019-02-17T02:21:01.343Z,-1.47
2019-02-17T02:23:30.399Z,-1.20
2019-02-17T02:25:59.825Z,-0.93
2019-02-17T02:28:28.893Z,-0.85
2019-02-17T02:30:57.962Z,-0.78
2019-02-17T02:33:27.001Z,-0.54
2019-02-17T02:35:56.052Z,-0.40
2019-02-17T02:38:27.376Z,-0.43
2019-02-17T02:40:56.447Z,-0.61
2019-02-17T02:43:25.517Z,-0.65
2019-02-17T02:45:54.576Z,-0.52
2019-02-17T02:48:23.643Z,-0.31
2019-02-17T02:50:57.253Z,-0.25
2019-02-17T02:53:26.325Z,-0.15
2019-02-17T02:55:55.389Z,-0.20
2019-02-17T02:58:38.183Z,-0.17
2019-02-17T03:01:10.458Z,-0.22
2019-02-17T03:03:40.358Z,-0.26
2019-02-17T03:06:10.351Z,-0.37
2019-02-17T03:08:39.403Z,-0.38
2019-02-17T03:14:09.075Z,-0.91
2019-02-17T03:16:38.130Z,-1.01
2019-02-17T03:19:07.180Z,-0.57
2019-02-17T03:21:38.230Z,-0.54
2019-02-17T03:24:07.867Z,-0.58
2019-02-17T03:26:36.958Z,-0.63
2019-02-17T03:31:41.192Z,-0.39
2019-02-17T03:34:10.290Z,-0.37
2019-02-17T03:36:40.205Z,-0.49
2019-02-17T03:39:09.304Z,-0.75
2019-02-17T03:41:52.329Z,-0.85
2019-02-17T03:44:25.903Z,-0.87
2019-02-17T03:46:54.984Z,-1.06
2019-02-17T03:57:12.299Z,-1.14
2019-02-17T03:59:41.469Z,-0.96
2019-02-17T04:02:10.538Z,-0.82
2019-02-17T04:07:18.373Z,-0.77
2019-02-17T04:09:48.991Z,-0.80
2019-02-17T04:12:19.077Z,-0.75
2019-02-17T04:14:48.142Z,-0.66
2019-02-17T04:17:17.196Z,-0.79
2019-02-17T04:19:46.283Z,-0.85
2019-02-17T04:22:15.800Z,-1.00
2019-02-17T04:24:44.912Z,-1.05
2019-02-17T04:27:13.977Z,-1.10
2019-02-17T04:29:43.373Z,-0.98
2019-02-17T04:32:12.561Z,-0.87
2019-02-17T04:34:41.602Z,-0.85
2019-02-17T04:37:11.588Z,-1.04
2019-02-17T04:42:17.043Z,-1.36
2019-02-17T04:46:27.585Z,-1.41
2019-02-17T04:48:57.269Z,-1.40
2019-02-17T04:51:26.347Z,-1.24
2019-02-17T04:53:55.398Z,-1.28
2019-02-17T04:56:24.439Z,-1.31
2019-02-17T04:58:53.520Z,-1.62
2019-02-17T05:01:24.117Z,-1.80
2019-02-17T05:03:53.208Z,-1.89
2019-02-17T05:06:22.280Z,-1.93
2019-02-17T05:08:51.354Z,-1.98
2019-02-17T05:11:21.352Z,-1.86
2019-02-17T05:13:50.947Z,-1.56
2019-02-17T05:16:20.951Z,-1.50
2019-02-17T05:18:50.036Z,-1.57
2019-02-17T05:21:22.262Z,-1.45
2019-02-17T05:23:52.242Z,-1.28
2019-02-17T05:26:21.306Z,-1.28
2019-02-17T05:28:51.292Z,-1.20
2019-02-17T05:31:21.947Z,-1.15
2019-02-17T05:33:51.927Z,-1.01
2019-02-17T05:38:57.666Z,-0.44
2019-02-17T05:41:29.873Z,-0.43
2019-02-17T05:49:13.286Z,-0.86
2019-02-17T05:51:42.337Z,-1.03
2019-02-17T05:54:17.731Z,-0.96
2019-02-17T05:56:46.879Z,-0.98
2019-02-17T05:59:16.934Z,-0.90
2019-02-17T06:01:45.999Z,-0.85
2019-02-17T06:04:18.903Z,-0.78
2019-02-17T06:06:48.460Z,-0.82
2019-02-17T06:09:18.526Z,-0.92
2019-02-17T06:11:48.980Z,-0.97
2019-02-17T06:17:09.928Z,-1.08
2019-02-17T06:19:39.898Z,-1.10
2019-02-17T06:22:09.496Z,-1.06
2019-02-17T06:24:39.001Z,-1.16
2019-02-17T06:27:08.592Z,-1.16
2019-02-17T06:29:37.696Z,-1.24
2019-02-17T06:32:07.172Z,-1.39
2019-02-17T06:34:36.268Z,-1.40
2019-02-17T06:37:05.343Z,-1.18
2019-02-17T06:39:36.362Z,-1.10
2019-02-17T06:42:05.443Z,-1.03
2019-02-17T06:44:34.508Z,-0.97
2019-02-17T06:47:03.563Z,-0.91
2019-02-17T06:49:33.611Z,-0.73
2019-02-17T06:52:03.221Z,-0.44
2019-02-17T06:54:40.089Z,-0.23
2019-02-17T06:57:09.131Z,0.07
2019-02-17T06:59:41.861Z,0.15
2019-02-17T07:02:11.501Z,0.28
2019-02-17T07:10:01.475Z,0.38
2019-02-17T07:12:31.510Z,0.52
2019-02-17T07:15:00.553Z,0.66
2019-02-17T07:17:37.577Z,0.74
2019-02-17T07:20:06.639Z,0.81
2019-02-17T07:22:36.595Z,0.98
2019-02-17T07:25:06.045Z,1.02
2019-02-17T07:30:12.129Z,1.44
2019-02-17T07:32:41.193Z,1.73
2019-02-17T07:35:10.304Z,1.77
2019-02-17T07:37:40.782Z,2.00
2019-02-17T07:40:09.863Z,2.17
2019-02-17T07:42:46.303Z,2.39
2019-02-17T07:45:15.347Z,2.49
2019-02-17T07:47:44.423Z,2.63
2019-02-17T07:50:13.853Z,2.69
2019-02-17T07:52:42.970Z,2.73
2019-02-17T07:55:11.987Z,2.86
2019-02-17T07:57:42.586Z,2.96
2019-02-17T08:00:11.702Z,3.02
2019-02-17T08:02:58.646Z,3.17
2019-02-17T08:05:39.539Z,3.48
2019-02-17T08:08:08.595Z,3.77
2019-02-17T08:10:38.264Z,3.89
2019-02-17T08:13:07.330Z,4.47
2019-02-17T08:15:36.424Z,4.47
2019-02-17T08:18:06.456Z,4.55
2019-02-17T08:20:36.751Z,4.69
2019-02-17T08:23:07.075Z,4.83
2019-02-17T08:25:36.140Z,4.91
2019-02-17T08:28:05.283Z,5.06
2019-02-17T08:30:35.490Z,5.20
2019-02-17T08:35:41.811Z,5.45
2019-02-17T08:38:10.869Z,5.50
2019-02-17T08:40:39.910Z,5.66
2019-02-17T08:43:10.287Z,5.82
2019-02-17T08:45:41.342Z,6.05
2019-02-17T08:48:10.382Z,6.36
2019-02-17T08:50:41.365Z,6.64
2019-02-17T08:53:10.551Z,6.84
2019-02-17T08:58:15.615Z,7.29
2019-02-17T09:00:45.588Z,7.54
2019-02-17T09:03:14.634Z,7.82
2019-02-17T09:05:44.522Z,7.95
2019-02-17T09:10:50.003Z,9.03
2019-02-17T09:15:56.309Z,13.21
2019-02-17T09:18:26.411Z,14.59
2019-02-17T09:20:55.467Z,15.98
2019-02-17T09:23:24.524Z,16.41
2019-02-17T09:25:53.609Z,17.66
2019-02-17T09:30:58.461Z,18.30
2019-02-17T09:33:27.526Z,18.08
2019-02-17T09:35:56.588Z,18.96
2019-02-17T09:38:25.668Z,21.71
2019-02-17T09:40:55.455Z,25.66
2019-02-17T09:43:24.548Z,24.25
2019-02-17T09:45:53.594Z,24.14
2019-02-17T09:48:27.607Z,22.31
2019-02-17T09:50:58.055Z,25.23
2019-02-17T09:53:27.116Z,25.37
2019-02-17T09:55:56.202Z,26.54
2019-02-17T09:58:25.251Z,27.34
2019-02-17T10:00:54.615Z,25.69
2019-02-17T10:03:23.686Z,28.48
2019-02-17T10:05:52.759Z,28.28
2019-02-17T10:08:21.884Z,30.76
2019-02-17T10:10:50.936Z,28.77
2019-02-17T10:15:56.290Z,26.48
2019-02-17T10:21:05.123Z,30.52
2019-02-17T10:23:34.214Z,29.09
2019-02-17T10:26:05.252Z,26.71
2019-02-17T10:28:42.094Z,25.19
2019-02-17T10:31:04.999Z,27.37
2019-02-17T10:33:43.995Z,27.15
2019-02-17T10:36:17.435Z,29.55
2019-02-17T10:38:46.744Z,25.56
2019-02-17T10:41:19.499Z,28.18
2019-02-17T10:43:48.534Z,30.35
2019-02-17T10:48:53.489Z,30.33
2019-02-17T10:51:22.527Z,29.71
2019-02-17T10:53:51.573Z,31.07
2019-02-17T10:56:21.553Z,32.26
2019-02-17T10:58:51.306Z,27.42
2019-02-17T11:01:20.359Z,29.09
2019-02-17T11:04:05.284Z,26.38
2019-02-17T11:06:34.792Z,26.66
2019-02-17T11:09:05.882Z,25.34
2019-02-17T11:11:34.931Z,26.25
2019-02-17T11:14:05.984Z,28.01
2019-02-17T11:16:40.037Z,25.49
2019-02-17T11:19:11.604Z,25.71
2019-02-17T11:21:40.678Z,25.78
2019-02-17T11:24:09.762Z,26.92
2019-02-17T11:26:38.824Z,28.84
2019-02-17T11:31:44.076Z,31.60
2019-02-17T11:34:13.231Z,30.78
2019-02-17T11:36:42.283Z,29.47
2019-02-17T11:39:18.559Z,29.95
2019-02-17T11:41:48.551Z,33.69
2019-02-17T11:44:17.659Z,29.27
2019-02-17T11:46:46.687Z,30.77
2019-02-17T11:49:15.727Z,30.08
2019-02-17T11:51:46.436Z,28.39
2019-02-17T11:56:50.840Z,35.16
2019-02-17T11:59:20.852Z,31.16
2019-02-17T12:01:50.850Z,28.19
2019-02-17T12:04:20.493Z,32.65
2019-02-17T12:06:49.577Z,35.00
2019-02-17T12:09:18.638Z,30.49
2019-02-17T12:11:50.002Z,28.03
2019-02-17T12:14:19.119Z,25.69
2019-02-17T12:16:49.134Z,27.01
2019-02-17T12:19:18.179Z,28.72
2019-02-17T12:21:54.453Z,30.55
2019-02-17T12:24:24.273Z,29.01
2019-02-17T12:26:58.956Z,29.88
2019-02-17T12:29:43.640Z,30.03
2019-02-17T12:32:12.839Z,27.15
2019-02-17T12:34:41.910Z,29.61
2019-02-17T12:37:11.450Z,30.25
2019-02-17T12:39:41.562Z,28.53
2019-02-17T12:47:27.851Z,28.86
2019-02-17T12:49:57.663Z,27.10
2019-02-17T12:52:27.703Z,27.99
2019-02-17T12:54:56.797Z,28.05
2019-02-17T12:57:26.368Z,28.95
2019-02-17T12:59:55.408Z,28.62
2019-02-17T13:02:24.456Z,29.87
2019-02-17T13:05:02.367Z,28.24
2019-02-17T13:07:32.737Z,30.49
2019-02-17T13:10:02.237Z,29.27
2019-02-17T13:12:31.335Z,31.34
2019-02-17T13:15:00.408Z,29.98
2019-02-17T13:17:29.513Z,30.71
2019-02-17T13:19:58.592Z,31.97
2019-02-17T13:22:28.410Z,31.58
2019-02-17T13:24:57.502Z,31.83
2019-02-17T13:30:03.343Z,30.74
2019-02-17T13:32:33.371Z,28.41
2019-02-17T13:35:04.157Z,31.77
2019-02-17T13:37:33.267Z,31.20
2019-02-17T13:40:02.324Z,30.83
2019-02-17T13:42:32.624Z,34.41
2019-02-17T13:45:01.949Z,32.55
2019-02-17T13:47:31.012Z,33.52
2019-02-17T13:50:01.036Z,33.07
2019-02-17T13:52:32.014Z,36.65
2019-02-17T13:54:59.631Z,38.05
2019-02-17T13:57:30.597Z,36.42
2019-02-17T14:02:39.581Z,39.55
2019-02-17T14:05:08.647Z,38.51
2019-02-17T14:07:38.580Z,37.89
2019-02-17T14:10:10.642Z,38.11
2019-02-17T14:12:39.726Z,39.76
2019-02-17T14:15:13.899Z,38.78
2019-02-17T14:17:42.955Z,37.60
2019-02-17T14:22:47.824Z,41.17
2019-02-17T14:25:16.900Z,40.07
2019-02-17T14:27:46.656Z,39.96
2019-02-17T14:30:17.452Z,38.23
2019-02-17T14:32:46.567Z,38.06
2019-02-17T14:35:15.598Z,37.58
2019-02-17T14:37:44.647Z,36.53
2019-02-17T14:40:14.101Z,36.93
2019-02-17T14:42:43.187Z,37.59
2019-02-17T14:45:13.731Z,37.42
2019-02-17T14:47:45.218Z,37.15
2019-02-17T14:50:14.256Z,36.71
2019-02-17T14:52:44.245Z,34.18
2019-02-17T14:55:16.472Z,34.15
2019-02-17T14:57:50.248Z,33.97
2019-02-17T15:00:23.418Z,34.35
2019-02-17T15:02:52.467Z,34.67
2019-02-17T15:05:22.431Z,33.76
2019-02-17T15:07:52.471Z,33.46
2019-02-17T15:10:21.525Z,32.37
2019-02-17T15:12:51.277Z,31.27
2019-02-17T15:15:20.350Z,30.33
2019-02-17T15:20:26.110Z,29.46
2019-02-17T15:25:31.027Z,28.76
2019-02-17T15:28:00.375Z,27.36
2019-02-17T15:30:29.406Z,28.10
2019-02-17T15:33:03.954Z,29.10
2019-02-17T15:35:29.405Z,29.44
2019-02-17T15:37:58.526Z,29.41
2019-02-17T15:43:03.338Z,28.70
2019-02-17T15:45:33.029Z,26.14
2019-02-17T15:48:02.110Z,24.51
2019-02-17T15:50:31.147Z,22.76
2019-02-17T15:53:01.721Z,21.60
2019-02-17T15:55:31.771Z,20.89
2019-02-17T16:00:36.662Z,19.96
2019-02-17T16:03:05.701Z,19.55
2019-02-17T16:05:37.354Z,18.61
2019-02-17T16:08:06.917Z,18.11
2019-02-17T16:10:36.906Z,17.81
2019-02-17T16:13:09.075Z,17.35
2019-02-17T16:15:39.086Z,16.49
2019-02-17T16:18:08.666Z,15.67
2019-02-17T16:20:39.759Z,15.09
2019-02-17T16:23:09.771Z,14.56
2019-02-17T16:25:39.251Z,13.96
2019-02-17T16:28:10.225Z,13.23
2019-02-17T16:30:39.286Z,12.94
2019-02-17T16:33:08.351Z,12.19
2019-02-17T16:35:37.504Z,11.43
2019-02-17T16:38:07.210Z,11.03
2019-02-17T16:40:36.259Z,10.54
2019-02-17T16:43:06.243Z,10.12
2019-02-17T16:45:36.269Z,10.05
2019-02-17T16:50:41.354Z,9.67
2019-02-17T16:55:46.207Z,8.76
2019-02-17T17:03:40.269Z,7.81
2019-02-17T17:06:09.543Z,7.70
2019-02-17T17:08:38.552Z,7.59
2019-02-17T17:13:42.851Z,7.40
2019-02-17T17:18:48.578Z,7.22
2019-02-17T17:21:19.543Z,7.06
2019-02-17T17:23:49.112Z,6.87
2019-02-17T17:26:18.181Z,6.70
2019-02-17T17:28:47.224Z,6.56
2019-02-17T17:31:16.275Z,6.46
2019-02-17T17:36:22.774Z,6.24
2019-02-17T17:38:51.860Z,6.08
2019-02-17T17:41:20.892Z,5.76
2019-02-17T17:46:30.307Z,5.45
2019-02-17T17:49:00.339Z,5.27
2019-02-17T17:51:30.336Z,5.13
2019-02-17T17:53:59.540Z,4.97
2019-02-17T17:56:41.905Z,4.97
2019-02-17T17:59:14.322Z,4.84
2019-02-17T18:01:43.354Z,4.70
2019-02-17T18:04:14.366Z,4.53
2019-02-17T18:06:43.425Z,4.53
2019-02-17T18:11:48.203Z,4.52
2019-02-17T18:14:21.408Z,4.24
2019-02-17T18:16:50.462Z,3.94
2019-02-17T18:19:19.487Z,3.80
2019-02-17T18:21:48.996Z,3.74
2019-02-17T18:24:18.071Z,3.51
2019-02-17T18:29:22.975Z,3.37
2019-02-17T18:31:52.043Z,3.36
2019-02-17T18:34:22.713Z,3.37
2019-02-17T18:36:51.767Z,3.26
2019-02-17T18:39:20.898Z,3.07
2019-02-17T18:41:51.339Z,2.88
2019-02-17T18:44:25.000Z,2.70
2019-02-17T18:46:54.044Z,2.63
2019-02-17T18:49:27.049Z,2.58
2019-02-17T18:51:56.110Z,2.66
2019-02-17T18:54:37.672Z,2.91
2019-02-17T18:57:12.512Z,3.21
2019-02-17T18:59:41.553Z,3.60
2019-02-17T19:02:12.511Z,4.04
2019-02-17T19:04:49.316Z,4.41
2019-02-17T19:09:59.330Z,3.59
2019-02-17T19:12:28.359Z,3.29
2019-02-17T19:14:57.421Z,3.07
2019-02-17T19:17:26.468Z,2.73
2019-02-17T19:19:57.036Z,2.46
2019-02-17T19:22:26.110Z,1.83
2019-02-17T19:24:58.628Z,1.82
2019-02-17T19:27:28.020Z,1.44
2019-02-17T19:29:57.116Z,1.57
2019-02-17T19:32:26.188Z,1.73
2019-02-17T19:34:55.305Z,1.41
2019-02-17T19:37:24.340Z,1.26
2019-02-17T19:39:55.036Z,1.30
2019-02-17T19:42:25.030Z,1.34
2019-02-17T19:44:54.116Z,1.20
2019-02-17T19:47:23.548Z,1.22
2019-02-17T19:49:56.688Z,1.38
2019-02-17T19:52:28.619Z,1.58
2019-02-17T19:55:11.110Z,1.66
2019-02-17T19:57:40.137Z,1.91
2019-02-17T20:00:22.482Z,2.00
2019-02-17T20:05:55.519Z,1.51
2019-02-17T20:08:24.592Z,1.56
2019-02-17T20:10:55.646Z,1.66
2019-02-17T20:13:25.168Z,1.46
2019-02-17T20:15:54.362Z,1.23
2019-02-17T20:18:23.395Z,1.25
2019-02-17T20:20:53.168Z,1.05
2019-02-17T20:23:22.262Z,0.68
2019-02-17T20:25:52.641Z,0.46
2019-02-17T20:28:32.412Z,0.40
2019-02-17T20:30:52.158Z,0.31
2019-02-17T20:33:21.209Z,0.47
2019-02-17T20:36:02.629Z,0.36
2019-02-17T20:38:26.574Z,0.54
2019-02-17T20:43:32.301Z,0.49
2019-02-17T20:46:01.376Z,0.22
2019-02-17T20:48:30.441Z,0.20
2019-02-17T20:50:59.489Z,0.35
2019-02-17T20:53:28.548Z,0.60
2019-02-17T20:55:57.627Z,0.84
2019-02-17T20:58:29.045Z,1.29
2019-02-17T21:01:06.857Z,1.77
2019-02-17T21:03:36.806Z,2.14
2019-02-17T21:06:12.898Z,2.35
2019-02-17T21:08:35.799Z,2.49
2019-02-17T21:11:08.149Z,2.60
2019-02-17T21:13:38.178Z,2.61
2019-02-17T21:16:09.229Z,2.73
2019-02-17T21:18:53.086Z,2.70
2019-02-17T21:21:22.107Z,2.65
2019-02-17T21:23:54.694Z,2.62
2019-02-17T21:26:26.198Z,2.74
2019-02-17T21:28:56.911Z,2.65
2019-02-17T21:31:26.878Z,2.67
2019-02-17T21:33:55.965Z,2.64
2019-02-17T21:36:24.998Z,2.60
2019-02-17T21:38:58.815Z,2.64
2019-02-17T21:41:28.364Z,2.72
2019-02-17T21:43:57.903Z,2.60
2019-02-17T21:46:28.048Z,2.51
2019-02-17T21:49:00.555Z,2.43
2019-02-17T21:51:29.603Z,2.48
2019-02-17T21:53:58.695Z,2.42
2019-02-17T21:56:38.548Z,2.38
2019-02-17T21:59:07.802Z,2.35
2019-02-17T22:01:43.692Z,2.44
2019-02-17T22:04:17.740Z,2.59
2019-02-17T22:06:46.847Z,2.62
2019-02-17T22:09:17.629Z,2.64
2019-02-17T22:11:46.779Z,2.59
2019-02-17T22:14:19.277Z,2.61
2019-02-17T22:16:48.910Z,2.57
2019-02-17T22:19:27.007Z,2.56
2019-02-17T22:22:00.002Z,2.65
2019-02-17T22:24:31.736Z,2.75
2019-02-17T22:27:01.803Z,2.73
2019-02-17T22:29:35.108Z,2.75
2019-02-17T22:32:05.357Z,2.79
2019-02-17T22:34:34.392Z,2.71
2019-02-17T22:39:39.255Z,2.51
2019-02-17T22:42:08.748Z,2.41
2019-02-17T22:47:16.601Z,2.72
2019-02-17T22:49:58.645Z,2.68
2019-02-17T22:55:10.187Z,2.62
2019-02-17T22:57:43.783Z,2.55
2019-02-17T23:00:38.431Z,2.51
2019-02-17T23:03:07.488Z,2.30
2019-02-17T23:05:37.372Z,2.18
2019-02-17T23:08:08.044Z,2.21
2019-02-17T23:10:37.133Z,2.13
2019-02-17T23:13:08.172Z,1.94
2019-02-17T23:18:14.895Z,1.88
2019-02-17T23:20:44.774Z,1.96
2019-02-17T23:25:53.018Z,2.08
2019-02-17T23:28:28.648Z,2.07
2019-02-17T23:30:57.675Z,1.99
2019-02-17T23:33:26.717Z,1.91
2019-02-17T23:35:55.752Z,1.90
2019-02-17T23:38:24.822Z,1.90
2019-02-17T23:40:56.208Z,1.91
2019-02-17T23:43:26.209Z,1.75
2019-02-17T23:45:55.253Z,1.65
2019-02-17T23:48:25.191Z,1.62
2019-02-17T23:50:54.258Z,1.52
2019-02-17T23:53:23.713Z,1.52
2019-02-17T23:55:52.776Z,1.53
2019-02-17T23:58:21.804Z,1.48
